createdAt,value
2023-05-17T00:00:10.157Z,31.58
2023-05-17T00:02:37.908Z,33.40
2023-05-17T00:05:11.956Z,29.75
2023-05-17T00:07:39.107Z,31.35
2023-05-17T00:10:07.143Z,31.13
2023-05-17T00:12:34.930Z,29.55
2023-05-17T00:15:02.098Z,31.02
2023-05-17T00:17:31.600Z,29.60
2023-05-17T00:19:58.978Z,30.20
2023-05-17T00:22:26.447Z,31.40
2023-05-17T00:24:53.876Z,34.67
2023-05-17T00:27:21.308Z,33.97
2023-05-17T00:29:48.820Z,38.85
2023-05-17T00:32:16.338Z,39.97
2023-05-17T00:34:43.666Z,42.83
2023-05-17T00:37:11.226Z,41.60
2023-05-17T00:39:38.617Z,45.20
2023-05-17T00:42:06.723Z,47.65
2023-05-17T00:44:34.130Z,45.30
2023-05-17T00:47:01.573Z,43.10
2023-05-17T00:49:29.380Z,39.33
2023-05-17T00:51:57.048Z,42.53
2023-05-17T00:54:26.988Z,42.15
2023-05-17T00:56:57.393Z,39.97
2023-05-17T00:59:26.446Z,38.92
2023-05-17T01:01:55.110Z,41.20
2023-05-17T01:04:23.582Z,40.83
2023-05-17T01:06:51.091Z,38.72
2023-05-17T01:09:18.733Z,37.50
2023-05-17T01:12:30.026Z,34.67
2023-05-17T01:15:09.048Z,39.17
2023-05-17T01:17:55.066Z,35.67
2023-05-17T01:20:54.536Z,34.25
2023-05-17T01:23:56.588Z,33.95
2023-05-17T01:26:47.518Z,33.60
2023-05-17T01:29:17.459Z,32.05
2023-05-17T01:31:46.447Z,31.80
2023-05-17T01:34:14.078Z,28.15
2023-05-17T01:36:43.434Z,29.27
2023-05-17T01:39:16.683Z,32.53
2023-05-17T01:42:04.368Z,30.55
2023-05-17T01:45:03.564Z,29.98
2023-05-17T01:48:04.306Z,28.27
2023-05-17T01:50:34.996Z,27.90
2023-05-17T01:53:12.252Z,27.60
2023-05-17T01:56:07.846Z,23.10
2023-05-17T01:58:45.581Z,25.63
2023-05-17T02:01:16.294Z,24.70
2023-05-17T02:03:44.066Z,25.23
2023-05-17T02:06:12.640Z,25.17
2023-05-17T02:08:39.981Z,26.58
2023-05-17T02:11:07.643Z,25.90
2023-05-17T02:13:34.976Z,29.13
2023-05-17T02:16:03.329Z,27.33
2023-05-17T02:18:32.942Z,30.40
2023-05-17T02:21:01.694Z,27.02
2023-05-17T02:23:28.902Z,30.23
2023-05-17T02:25:57.324Z,30.95
2023-05-17T02:28:24.754Z,34.17
2023-05-17T02:30:55.014Z,31.27
2023-05-17T02:33:22.773Z,34.25
2023-05-17T02:35:50.794Z,33.95
2023-05-17T02:38:18.159Z,33.58
2023-05-17T02:40:45.862Z,33.75
2023-05-17T02:43:13.049Z,33.78
2023-05-17T02:45:40.690Z,34.00
2023-05-17T02:48:09.115Z,33.92
2023-05-17T02:50:36.597Z,38.33
2023-05-17T02:53:04.181Z,37.17
2023-05-17T02:55:33.596Z,36.38
2023-05-17T02:58:00.955Z,36.38
2023-05-17T03:00:28.526Z,39.45
2023-05-17T03:02:56.033Z,34.30
2023-05-17T03:05:23.273Z,37.60
2023-05-17T03:07:50.919Z,37.25
2023-05-17T03:10:18.357Z,35.80
2023-05-17T03:12:51.683Z,36.33
2023-05-17T03:15:19.514Z,36.63
2023-05-17T03:17:47.879Z,36.95
2023-05-17T03:20:15.271Z,36.53
2023-05-17T03:22:42.695Z,37.35
2023-05-17T03:25:10.145Z,36.40
2023-05-17T03:27:37.557Z,34.70
2023-05-17T03:30:11.627Z,36.35
2023-05-17T03:32:42.403Z,35.35
2023-05-17T03:35:10.036Z,33.35
2023-05-17T03:37:37.589Z,33.85
2023-05-17T03:40:05.743Z,37.03
2023-05-17T03:42:33.216Z,31.13
2023-05-17T03:45:01.871Z,33.92
2023-05-17T03:47:30.408Z,34.08
2023-05-17T03:49:57.776Z,36.08
2023-05-17T03:52:25.231Z,36.22
2023-05-17T03:54:52.665Z,33.67
2023-05-17T03:57:22.026Z,34.75
2023-05-17T03:59:49.628Z,35.15
2023-05-17T04:02:17.304Z,39.13
2023-05-17T04:04:51.741Z,36.25
2023-05-17T04:07:19.480Z,36.25
2023-05-17T04:09:46.924Z,32.75
2023-05-17T04:12:15.512Z,31.63
2023-05-17T04:14:42.658Z,33.55
2023-05-17T04:17:10.106Z,32.45
2023-05-17T04:19:37.647Z,30.58
2023-05-17T04:22:05.223Z,29.25
2023-05-17T04:24:32.403Z,32.92
2023-05-17T04:27:01.337Z,28.02
2023-05-17T04:29:29.933Z,26.75
2023-05-17T04:31:58.069Z,30.98
2023-05-17T04:34:25.436Z,26.85
2023-05-17T04:36:53.298Z,26.02
2023-05-17T04:39:21.332Z,29.63
2023-05-17T04:41:48.832Z,26.02
2023-05-17T04:44:16.989Z,24.00
2023-05-17T04:46:46.173Z,29.67
2023-05-17T04:49:13.475Z,28.70
2023-05-17T04:51:42.053Z,28.70
2023-05-17T04:54:09.848Z,26.95
2023-05-17T04:56:39.073Z,28.13
2023-05-17T04:59:06.109Z,27.17
2023-05-17T05:01:35.615Z,25.98
2023-05-17T05:04:07.538Z,27.98
2023-05-17T05:06:41.171Z,25.70
2023-05-17T05:09:08.859Z,25.15
2023-05-17T05:11:37.237Z,26.08
2023-05-17T05:14:16.513Z,23.40
2023-05-17T05:16:44.880Z,25.80
2023-05-17T05:19:13.832Z,26.58
2023-05-17T05:21:41.236Z,25.23
2023-05-17T05:24:09.176Z,24.52
2023-05-17T05:26:36.849Z,25.13
2023-05-17T05:29:04.438Z,24.58
2023-05-17T05:31:33.702Z,23.15
2023-05-17T05:34:01.500Z,25.92
2023-05-17T05:36:28.636Z,27.88
2023-05-17T05:38:56.064Z,24.38
2023-05-17T05:41:23.669Z,22.50
2023-05-17T05:43:53.021Z,27.75
2023-05-17T05:46:20.805Z,23.13
2023-05-17T05:48:47.962Z,25.92
2023-05-17T05:51:22.739Z,24.65
2023-05-17T05:53:51.366Z,26.13
2023-05-17T05:56:18.708Z,27.48
2023-05-17T05:58:47.006Z,25.45
2023-05-17T06:01:14.466Z,23.10
2023-05-17T06:03:41.956Z,27.95
2023-05-17T06:06:09.513Z,27.80
2023-05-17T06:08:36.806Z,24.02
2023-05-17T06:11:04.332Z,22.08
2023-05-17T06:13:31.848Z,25.08
2023-05-17T06:15:59.872Z,23.15
2023-05-17T06:18:28.274Z,21.75
2023-05-17T06:20:55.819Z,22.13
2023-05-17T06:23:23.317Z,23.23
2023-05-17T06:25:51.689Z,23.17
2023-05-17T06:28:20.020Z,25.10
2023-05-17T06:30:47.532Z,21.35
2023-05-17T06:33:15.276Z,24.08
2023-05-17T06:35:55.545Z,17.90
2023-05-17T06:38:24.239Z,17.20
2023-05-17T06:40:56.032Z,21.25
2023-05-17T06:43:23.589Z,19.40
2023-05-17T06:45:51.479Z,19.08
2023-05-17T06:48:18.849Z,18.55
2023-05-17T06:50:46.578Z,17.35
2023-05-17T06:53:14.100Z,15.52
2023-05-17T06:55:43.688Z,19.40
2023-05-17T06:58:11.190Z,16.58
2023-05-17T07:00:38.596Z,14.18
2023-05-17T07:03:06.179Z,16.08
2023-05-17T07:05:34.681Z,18.33
2023-05-17T07:08:02.091Z,16.23
2023-05-17T07:10:29.549Z,13.73
2023-05-17T07:12:58.636Z,14.13
2023-05-17T07:15:27.066Z,12.90
2023-05-17T07:17:55.425Z,16.08
2023-05-17T07:20:23.733Z,11.07
2023-05-17T07:22:52.337Z,14.20
2023-05-17T07:25:21.853Z,11.95
2023-05-17T07:27:49.266Z,14.40
2023-05-17T07:30:16.972Z,14.00
2023-05-17T07:32:46.256Z,16.70
2023-05-17T07:35:15.738Z,15.40
2023-05-17T07:37:44.122Z,13.38
2023-05-17T07:40:12.013Z,13.32
2023-05-17T07:42:39.141Z,14.00
2023-05-17T07:45:08.148Z,11.23
2023-05-17T07:47:35.554Z,12.70
2023-05-17T07:50:05.420Z,12.75
2023-05-17T07:52:32.611Z,10.48
2023-05-17T07:55:00.000Z,15.60
2023-05-17T07:57:30.163Z,12.85
2023-05-17T07:59:57.471Z,13.60
2023-05-17T08:02:24.583Z,14.00
2023-05-17T08:04:52.255Z,15.15
2023-05-17T08:07:27.482Z,15.27
2023-05-17T08:09:55.124Z,13.60
2023-05-17T08:12:22.352Z,11.88
2023-05-17T08:14:50.847Z,12.13
2023-05-17T08:17:18.294Z,14.82
2023-05-17T08:19:45.997Z,12.90
2023-05-17T08:22:15.589Z,13.40
2023-05-17T08:24:46.899Z,10.40
2023-05-17T08:27:15.323Z,15.90
2023-05-17T08:29:42.799Z,11.43
2023-05-17T08:32:10.693Z,12.43
2023-05-17T08:34:38.619Z,10.63
2023-05-17T08:37:06.256Z,9.23
2023-05-17T08:39:34.674Z,12.80
2023-05-17T08:42:02.894Z,12.77
2023-05-17T08:44:30.178Z,13.70
2023-05-17T08:47:00.796Z,13.23
2023-05-17T08:49:38.325Z,11.85
2023-05-17T08:52:10.659Z,13.13
2023-05-17T08:54:38.115Z,13.25
2023-05-17T08:57:07.683Z,11.50
2023-05-17T08:59:36.980Z,13.13
2023-05-17T09:02:06.780Z,12.75
2023-05-17T09:04:34.094Z,14.50
2023-05-17T09:07:01.297Z,14.88
2023-05-17T09:09:29.020Z,14.57
2023-05-17T09:11:56.843Z,16.38
2023-05-17T09:14:24.033Z,16.17
2023-05-17T09:16:58.194Z,15.05
2023-05-17T09:19:25.684Z,15.13
2023-05-17T09:21:54.908Z,12.10
2023-05-17T09:24:36.086Z,10.00
2023-05-17T09:27:04.715Z,12.60
2023-05-17T09:29:33.249Z,10.75
2023-05-17T09:32:19.151Z,11.82
2023-05-17T09:34:47.380Z,9.80
2023-05-17T09:37:19.799Z,14.57
2023-05-17T09:39:48.011Z,10.45
2023-05-17T09:42:17.220Z,14.88
2023-05-17T09:44:57.978Z,14.90
2023-05-17T09:47:30.386Z,15.82
2023-05-17T09:50:03.570Z,10.82
2023-05-17T09:52:32.344Z,20.45
2023-05-17T09:55:01.445Z,13.38
2023-05-17T09:57:37.280Z,13.60
2023-05-17T10:00:10.119Z,11.95
2023-05-17T10:02:38.388Z,12.97
2023-05-17T10:05:09.517Z,19.98
2023-05-17T10:07:39.549Z,13.15
2023-05-17T10:10:08.650Z,14.45
2023-05-17T10:12:39.560Z,16.25
2023-05-17T10:15:08.127Z,17.52
2023-05-17T10:17:39.574Z,14.43
2023-05-17T10:20:09.205Z,13.82
2023-05-17T10:22:38.114Z,15.05
2023-05-17T10:25:06.217Z,14.98
2023-05-17T10:27:35.591Z,10.88
2023-05-17T10:30:03.381Z,24.17
2023-05-17T10:32:31.398Z,15.73
2023-05-17T10:35:10.312Z,15.90
2023-05-17T10:37:40.772Z,13.38
2023-05-17T10:40:13.975Z,13.13
2023-05-17T10:42:45.954Z,14.07
2023-05-17T10:45:13.982Z,19.27
2023-05-17T10:47:47.104Z,15.50
2023-05-17T10:50:15.483Z,18.20
2023-05-17T10:52:50.915Z,15.60
2023-05-17T10:55:23.547Z,14.70
2023-05-17T10:58:17.329Z,15.63
2023-05-17T11:00:51.252Z,14.90
2023-05-17T11:03:26.972Z,16.42
2023-05-17T11:06:24.540Z,15.68
2023-05-17T11:09:14.086Z,19.45
2023-05-17T11:12:06.463Z,17.80
2023-05-17T11:14:45.573Z,15.52
2023-05-17T11:17:20.238Z,17.10
2023-05-17T11:19:59.434Z,20.65
2023-05-17T11:22:37.195Z,21.33
2023-05-17T11:25:08.879Z,19.50
2023-05-17T11:27:47.578Z,23.33
2023-05-17T11:30:20.052Z,22.13
2023-05-17T11:32:52.591Z,24.63
2023-05-17T11:35:25.096Z,18.30
2023-05-17T11:37:54.718Z,69.10
2023-05-17T11:40:28.682Z,21.77
2023-05-17T11:43:21.404Z,21.88
2023-05-17T11:45:57.862Z,21.00
2023-05-17T11:48:27.001Z,21.00
2023-05-17T11:50:56.972Z,23.05
2023-05-17T11:53:27.504Z,21.33
2023-05-17T11:55:56.403Z,26.75
2023-05-17T11:58:27.328Z,22.50
2023-05-17T12:00:56.948Z,21.90
2023-05-17T12:03:25.804Z,19.30
2023-05-17T12:06:04.975Z,19.95
2023-05-17T12:08:37.162Z,17.33
2023-05-17T12:11:06.537Z,21.88
2023-05-17T12:13:35.979Z,17.13
2023-05-17T12:16:08.642Z,21.92
2023-05-17T12:18:38.249Z,19.75
2023-05-17T12:21:06.478Z,19.95
2023-05-17T12:23:35.780Z,22.90
2023-05-17T12:26:17.745Z,24.08
2023-05-17T12:28:46.480Z,20.45
2023-05-17T12:31:22.924Z,16.42
2023-05-17T12:33:51.323Z,19.73
2023-05-17T12:36:25.906Z,23.50
2023-05-17T12:38:56.484Z,23.05
2023-05-17T12:41:28.875Z,18.63
2023-05-17T12:44:06.143Z,19.98
2023-05-17T12:46:34.357Z,31.10
2023-05-17T12:49:09.925Z,27.55
2023-05-17T12:51:45.219Z,22.45
2023-05-17T12:54:26.764Z,27.55
2023-05-17T12:56:54.402Z,21.00
2023-05-17T12:59:22.121Z,21.90
2023-05-17T13:01:51.528Z,20.65
2023-05-17T13:04:34.414Z,25.75
2023-05-17T13:07:04.755Z,20.97
2023-05-17T13:09:33.556Z,20.08
2023-05-17T13:12:03.044Z,22.23
2023-05-17T13:14:45.274Z,24.48
2023-05-17T13:17:37.249Z,29.90
2023-05-17T13:20:07.138Z,18.02
2023-05-17T13:22:36.421Z,18.80
2023-05-17T13:25:04.365Z,21.05
2023-05-17T13:27:33.756Z,28.73
2023-05-17T13:30:01.362Z,26.27
2023-05-17T13:32:28.755Z,20.55
2023-05-17T13:34:57.042Z,22.00
2023-05-17T13:37:24.085Z,19.77
2023-05-17T13:39:54.879Z,22.95
2023-05-17T13:42:22.833Z,27.83
2023-05-17T13:44:50.372Z,29.80
2023-05-17T13:47:18.028Z,47.50
2023-05-17T13:49:47.247Z,28.05
2023-05-17T13:52:15.560Z,22.08
2023-05-17T13:54:50.195Z,25.17
2023-05-17T13:57:18.794Z,22.08
2023-05-17T13:59:50.754Z,18.77
2023-05-17T14:02:17.793Z,28.80
2023-05-17T14:04:45.274Z,29.88
2023-05-17T14:07:12.963Z,20.45
2023-05-17T14:09:40.217Z,24.30
2023-05-17T14:12:08.292Z,26.67
2023-05-17T14:14:36.589Z,19.98
2023-05-17T14:17:04.275Z,23.48
2023-05-17T14:19:32.653Z,19.73
2023-05-17T14:21:59.898Z,21.65
2023-05-17T14:24:27.465Z,17.10
2023-05-17T14:26:54.919Z,17.35
2023-05-17T14:29:22.371Z,18.52
2023-05-17T14:31:51.004Z,15.30
2023-05-17T14:34:18.386Z,18.50
2023-05-17T14:36:46.757Z,17.73
2023-05-17T14:39:14.434Z,16.73
2023-05-17T14:41:45.888Z,16.80
2023-05-17T14:44:13.968Z,15.35
2023-05-17T14:46:41.518Z,14.70
2023-05-17T14:49:09.285Z,16.27
2023-05-17T14:51:36.795Z,14.57
2023-05-17T14:54:04.107Z,14.85
2023-05-17T14:56:32.481Z,17.05
2023-05-17T14:59:00.393Z,10.88
2023-05-17T15:01:28.390Z,16.33
2023-05-17T15:03:57.245Z,13.07
2023-05-17T15:06:27.547Z,11.40
2023-05-17T15:08:55.247Z,11.63
2023-05-17T15:11:24.598Z,11.23
2023-05-17T15:13:51.898Z,11.10
2023-05-17T15:16:19.714Z,15.15
2023-05-17T15:18:48.691Z,11.65
2023-05-17T15:21:17.996Z,13.68
2023-05-17T15:23:46.420Z,14.15
2023-05-17T15:26:13.909Z,11.98
2023-05-17T15:28:43.356Z,14.70
2023-05-17T15:31:11.899Z,12.88
2023-05-17T15:33:39.859Z,12.27
2023-05-17T15:36:07.526Z,12.23
2023-05-17T15:38:34.922Z,12.35
2023-05-17T15:41:05.272Z,10.57
2023-05-17T15:43:35.223Z,12.38
2023-05-17T15:46:03.547Z,10.60
2023-05-17T15:48:31.135Z,12.75
2023-05-17T15:50:59.097Z,9.45
2023-05-17T15:53:33.870Z,18.52
2023-05-17T15:56:02.708Z,10.60
2023-05-17T15:58:33.724Z,11.15
2023-05-17T16:01:05.433Z,11.10
2023-05-17T16:03:33.662Z,11.75
2023-05-17T16:06:03.266Z,13.25
2023-05-17T16:08:31.040Z,13.13
2023-05-17T16:11:00.340Z,20.88
2023-05-17T16:13:29.583Z,11.57
2023-05-17T16:15:58.385Z,15.18
2023-05-17T16:18:27.011Z,14.35
2023-05-17T16:21:03.698Z,13.30
2023-05-17T16:23:31.776Z,11.00
2023-05-17T16:26:00.364Z,12.90
2023-05-17T16:28:28.857Z,12.85
2023-05-17T16:30:57.260Z,13.13
2023-05-17T16:33:24.838Z,11.38
2023-05-17T16:35:52.342Z,12.50
2023-05-17T16:38:19.800Z,10.23
2023-05-17T16:40:49.233Z,13.38
2023-05-17T16:43:17.809Z,10.75
2023-05-17T16:45:46.730Z,10.60
2023-05-17T16:48:15.957Z,20.23
2023-05-17T16:50:44.415Z,13.35
2023-05-17T16:53:12.660Z,11.93
2023-05-17T16:55:39.867Z,11.38
2023-05-17T16:58:07.658Z,11.63
2023-05-17T17:00:35.409Z,13.13
2023-05-17T17:03:02.638Z,11.93
2023-05-17T17:05:30.174Z,10.35
2023-05-17T17:08:03.560Z,12.10
2023-05-17T17:10:31.697Z,11.80
2023-05-17T17:13:05.319Z,11.43
2023-05-17T17:15:32.812Z,14.25
2023-05-17T17:18:01.270Z,11.82
2023-05-17T17:20:29.127Z,11.88
2023-05-17T17:22:58.785Z,14.77
2023-05-17T17:25:26.437Z,10.02
2023-05-17T17:27:55.123Z,11.75
2023-05-17T17:30:22.833Z,11.70
2023-05-17T17:32:50.286Z,12.30
2023-05-17T17:35:17.633Z,11.85
2023-05-17T17:37:45.100Z,13.02
2023-05-17T17:40:13.311Z,13.88
2023-05-17T17:42:42.571Z,15.27
2023-05-17T17:45:10.498Z,12.40
2023-05-17T17:47:37.963Z,11.30
2023-05-17T17:50:05.883Z,11.85
2023-05-17T17:52:34.431Z,15.40
2023-05-17T17:55:02.021Z,13.48
2023-05-17T17:57:32.271Z,12.43
2023-05-17T18:00:00.319Z,10.27
2023-05-17T18:02:27.583Z,14.95
2023-05-17T18:04:55.042Z,16.88
2023-05-17T18:07:22.270Z,15.55
2023-05-17T18:09:49.855Z,14.95
2023-05-17T18:12:17.179Z,14.82
2023-05-17T18:14:44.763Z,12.93
2023-05-17T18:17:12.201Z,14.30
2023-05-17T18:19:39.581Z,13.48
2023-05-17T18:22:07.067Z,15.63
2023-05-17T18:24:35.537Z,15.80
2023-05-17T18:27:04.091Z,15.50
2023-05-17T18:29:37.950Z,21.55
2023-05-17T18:34:36.580Z,22.15
2023-05-17T18:37:05.347Z,21.85
2023-05-17T18:39:35.689Z,19.80
2023-05-17T18:42:03.320Z,19.23
2023-05-17T18:44:31.620Z,27.15
2023-05-17T18:46:59.102Z,41.33
2023-05-17T18:49:28.040Z,19.48
2023-05-17T18:51:56.659Z,15.15
2023-05-17T18:54:25.962Z,10.88
2023-05-17T18:56:53.780Z,12.73
2023-05-17T18:59:24.558Z,15.65
2023-05-17T19:01:52.380Z,15.95
2023-05-17T19:04:20.239Z,12.27
2023-05-17T19:06:48.382Z,15.27
2023-05-17T19:09:16.482Z,31.13
2023-05-17T19:11:43.894Z,29.20
2023-05-17T19:14:12.216Z,31.13
2023-05-17T19:16:42.450Z,37.58
2023-05-17T19:19:16.829Z,36.60
2023-05-17T19:21:46.392Z,36.83
2023-05-17T19:24:13.869Z,31.58
2023-05-17T19:26:41.900Z,18.00
2023-05-17T19:29:09.912Z,14.13
2023-05-17T19:31:38.801Z,17.33
2023-05-17T19:34:06.292Z,13.60
2023-05-17T19:36:33.992Z,11.45
2023-05-17T19:39:08.867Z,10.55
2023-05-17T19:41:37.467Z,10.45
2023-05-17T19:44:07.445Z,13.05
2023-05-17T19:46:35.155Z,12.13
2023-05-17T19:49:03.582Z,13.90
2023-05-17T19:51:32.208Z,11.60
2023-05-17T19:54:01.208Z,11.77
2023-05-17T19:56:30.447Z,11.80
2023-05-17T19:58:58.171Z,17.10
2023-05-17T20:01:27.439Z,14.30
2023-05-17T20:03:55.333Z,11.50
2023-05-17T20:06:22.703Z,11.65
2023-05-17T20:08:50.388Z,18.75
2023-05-17T20:11:24.254Z,11.35
2023-05-17T20:13:52.216Z,13.35
2023-05-17T20:16:19.939Z,16.17
2023-05-17T20:18:48.688Z,9.77
2023-05-17T20:21:24.288Z,12.45
2023-05-17T20:23:57.259Z,12.00
2023-05-17T20:26:27.585Z,17.55
2023-05-17T20:29:01.475Z,9.82
2023-05-17T20:31:29.138Z,13.13
2023-05-17T20:33:56.840Z,12.52
2023-05-17T20:36:24.790Z,12.40
2023-05-17T20:38:53.156Z,14.25
2023-05-17T20:41:21.001Z,13.57
2023-05-17T20:43:50.246Z,15.65
2023-05-17T20:46:24.413Z,12.68
2023-05-17T20:48:54.017Z,13.77
2023-05-17T20:51:22.715Z,14.23
2023-05-17T20:53:50.946Z,15.95
2023-05-17T20:56:19.668Z,14.23
2023-05-17T20:58:48.281Z,14.48
2023-05-17T21:01:16.020Z,22.15
2023-05-17T21:03:43.704Z,16.10
2023-05-17T21:06:15.043Z,15.98
2023-05-17T21:08:43.168Z,12.80
2023-05-17T21:11:10.443Z,14.02
2023-05-17T21:13:37.833Z,14.13
2023-05-17T21:16:11.414Z,16.92
2023-05-17T21:18:41.412Z,16.13
2023-05-17T21:21:08.848Z,13.93
2023-05-17T21:23:36.537Z,12.90
2023-05-17T21:26:03.862Z,10.43
2023-05-17T21:28:31.263Z,14.73
2023-05-17T21:30:58.770Z,17.55
2023-05-17T21:33:26.163Z,16.30
2023-05-17T21:35:53.734Z,16.02
2023-05-17T21:38:22.057Z,14.75
2023-05-17T21:40:49.503Z,19.08
2023-05-17T21:43:17.028Z,14.98
2023-05-17T21:45:45.464Z,14.63
2023-05-17T21:48:13.113Z,15.15
2023-05-17T21:50:40.311Z,14.52
2023-05-17T21:53:08.134Z,16.17
2023-05-17T21:55:36.983Z,17.45
2023-05-17T21:58:20.855Z,15.15
2023-05-17T22:00:50.174Z,14.63
2023-05-17T22:03:17.501Z,11.70
2023-05-17T22:05:45.092Z,13.95
2023-05-17T22:08:12.533Z,14.43
2023-05-17T22:10:46.961Z,12.98
2023-05-17T22:13:18.577Z,14.80
2023-05-17T22:15:46.371Z,13.40
2023-05-17T22:18:14.661Z,17.25
2023-05-17T22:20:42.239Z,11.32
2023-05-17T22:23:10.530Z,12.93
2023-05-17T22:25:51.532Z,12.35
2023-05-17T22:28:18.796Z,12.40
2023-05-17T22:30:46.840Z,15.55
2023-05-17T22:33:16.665Z,14.95
2023-05-17T22:35:44.218Z,16.25
2023-05-17T22:38:11.745Z,14.57
2023-05-17T22:40:40.058Z,12.30
2023-05-17T22:43:09.118Z,18.10
2023-05-17T22:45:36.936Z,16.83
2023-05-17T22:48:07.476Z,14.50
2023-05-17T22:50:36.567Z,13.80
2023-05-17T22:53:03.884Z,16.25
2023-05-17T22:55:31.711Z,17.38
2023-05-17T22:58:01.327Z,13.05
2023-05-17T23:00:34.898Z,15.75
2023-05-17T23:03:02.033Z,15.88
2023-05-17T23:05:29.440Z,15.30
2023-05-17T23:08:01.359Z,12.02
2023-05-17T23:10:34.932Z,18.85
2023-05-17T23:13:02.427Z,17.30
2023-05-17T23:15:34.627Z,12.30
2023-05-17T23:18:03.461Z,16.23
2023-05-17T23:20:31.492Z,17.98
2023-05-17T23:22:59.883Z,17.05
2023-05-17T23:25:29.598Z,17.63
2023-05-17T23:28:00.105Z,16.55
2023-05-17T23:30:28.204Z,16.95
2023-05-17T23:32:55.507Z,15.45
2023-05-17T23:35:24.218Z,17.13
2023-05-17T23:37:52.023Z,17.02
2023-05-17T23:40:19.783Z,15.00
2023-05-17T23:42:47.266Z,15.85
2023-05-17T23:45:15.888Z,19.00
2023-05-17T23:47:43.301Z,16.65
2023-05-17T23:50:11.060Z,12.93
2023-05-17T23:52:39.434Z,15.55
2023-05-17T23:55:07.964Z,18.83
2023-05-17T23:57:35.866Z,17.98
